createdAt,value
2023-05-30T00:01:01.950Z,3.03
2023-05-30T00:03:34.027Z,2.53
2023-05-30T00:06:01.850Z,3.08
2023-05-30T00:08:30.781Z,2.58
2023-05-30T00:10:58.696Z,2.58
2023-05-30T00:13:26.375Z,2.70
2023-05-30T00:15:54.187Z,2.65
2023-05-30T00:18:21.666Z,3.10
2023-05-30T00:20:52.396Z,2.65
2023-05-30T00:23:19.882Z,2.50
2023-05-30T00:25:49.266Z,2.15
2023-05-30T00:28:19.130Z,2.20
2023-05-30T00:30:46.979Z,2.40
2023-05-30T00:33:17.455Z,3.15
2023-05-30T00:35:45.205Z,2.50
2023-05-30T00:38:12.691Z,2.42
2023-05-30T00:40:43.720Z,2.75
2023-05-30T00:43:12.791Z,2.28
2023-05-30T00:45:40.687Z,2.55
2023-05-30T00:48:08.596Z,2.45
2023-05-30T00:50:37.090Z,3.00
2023-05-30T00:53:05.869Z,2.55
2023-05-30T00:55:34.174Z,2.75
2023-05-30T00:58:02.981Z,2.80
2023-05-30T01:00:36.120Z,2.42
2023-05-30T01:03:03.875Z,3.08
2023-05-30T01:05:31.946Z,2.83
2023-05-30T01:07:59.254Z,2.47
2023-05-30T01:10:27.701Z,2.65
2023-05-30T01:13:04.853Z,3.10
2023-05-30T01:15:38.156Z,2.50
2023-05-30T01:18:12.521Z,2.50
2023-05-30T01:20:43.191Z,2.95
2023-05-30T01:23:31.874Z,2.38
2023-05-30T01:26:14.861Z,2.90
2023-05-30T01:28:45.940Z,2.42
2023-05-30T01:31:13.747Z,2.67
2023-05-30T01:33:45.162Z,2.92
2023-05-30T01:36:12.844Z,2.88
2023-05-30T01:38:40.622Z,2.47
2023-05-30T01:41:15.101Z,2.50
2023-05-30T01:43:52.906Z,2.58
2023-05-30T01:46:30.057Z,3.03
2023-05-30T01:49:06.195Z,2.60
2023-05-30T01:51:41.917Z,3.10
2023-05-30T01:54:13.884Z,3.33
2023-05-30T01:56:45.615Z,2.65
2023-05-30T01:59:19.200Z,3.00
2023-05-30T02:01:48.126Z,2.72
2023-05-30T02:04:16.337Z,2.60
2023-05-30T02:06:44.096Z,2.70
2023-05-30T02:09:11.932Z,2.80
2023-05-30T02:11:39.360Z,3.55
2023-05-30T02:14:08.540Z,3.20
2023-05-30T02:16:37.387Z,3.42
2023-05-30T02:19:05.771Z,2.83
2023-05-30T02:21:33.361Z,2.95
2023-05-30T02:24:01.209Z,2.63
2023-05-30T02:26:28.652Z,3.03
2023-05-30T02:28:56.639Z,2.85
2023-05-30T02:31:24.100Z,3.53
2023-05-30T02:33:53.552Z,3.47
2023-05-30T02:36:21.077Z,3.50
2023-05-30T02:38:49.054Z,3.17
2023-05-30T02:41:16.708Z,3.15
2023-05-30T02:43:44.971Z,3.38
2023-05-30T02:46:12.401Z,3.40
2023-05-30T02:48:40.250Z,3.13
2023-05-30T02:51:09.395Z,2.90
2023-05-30T02:53:37.627Z,4.32
2023-05-30T02:56:06.118Z,3.03
2023-05-30T02:58:33.978Z,3.40
2023-05-30T03:01:01.417Z,3.08
2023-05-30T03:03:29.324Z,3.25
2023-05-30T03:05:56.672Z,2.72
2023-05-30T03:08:26.813Z,2.90
2023-05-30T03:10:54.594Z,2.80
2023-05-30T03:13:22.516Z,2.83
2023-05-30T03:15:50.126Z,3.20
2023-05-30T03:18:17.845Z,2.60
2023-05-30T03:20:45.377Z,3.15
2023-05-30T03:23:13.209Z,3.17
2023-05-30T03:25:42.101Z,3.10
2023-05-30T03:28:10.010Z,2.88
2023-05-30T03:30:37.444Z,3.55
2023-05-30T03:33:05.332Z,3.40
2023-05-30T03:35:34.166Z,2.88
2023-05-30T03:38:03.764Z,3.22
2023-05-30T03:40:31.207Z,3.25
2023-05-30T03:43:00.511Z,3.90
2023-05-30T03:45:27.936Z,3.45
2023-05-30T03:47:55.924Z,3.40
2023-05-30T03:50:23.441Z,3.05
2023-05-30T03:52:51.259Z,3.00
2023-05-30T03:55:18.669Z,3.00
2023-05-30T03:57:46.506Z,2.92
2023-05-30T04:00:16.519Z,2.83
2023-05-30T04:02:44.346Z,3.22
2023-05-30T04:05:11.939Z,3.13
2023-05-30T04:07:39.948Z,2.75
2023-05-30T04:10:08.134Z,3.47
2023-05-30T04:12:36.313Z,3.00
2023-05-30T04:15:04.273Z,2.92
2023-05-30T04:17:33.710Z,3.35
2023-05-30T04:20:01.437Z,2.95
2023-05-30T04:22:29.367Z,2.80
2023-05-30T04:24:56.797Z,3.10
2023-05-30T04:27:24.720Z,2.55
2023-05-30T04:29:52.412Z,2.58
2023-05-30T04:32:20.796Z,2.95
2023-05-30T04:34:49.869Z,2.78
2023-05-30T04:37:17.541Z,2.72
2023-05-30T04:39:45.533Z,3.05
2023-05-30T04:42:13.532Z,3.40
2023-05-30T04:44:41.048Z,2.67
2023-05-30T04:47:09.005Z,2.45
2023-05-30T04:49:36.392Z,2.15
2023-05-30T04:52:06.722Z,2.78
2023-05-30T04:54:34.183Z,2.88
2023-05-30T04:57:02.466Z,2.53
2023-05-30T04:59:29.940Z,2.50
2023-05-30T05:01:58.392Z,2.40
2023-05-30T05:04:26.079Z,2.80
2023-05-30T05:06:53.900Z,2.38
2023-05-30T05:09:22.893Z,2.72
2023-05-30T05:11:51.131Z,2.83
2023-05-30T05:14:19.068Z,2.88
2023-05-30T05:16:47.135Z,2.65
2023-05-30T05:19:14.748Z,2.75
2023-05-30T05:21:42.689Z,2.55
2023-05-30T05:24:10.252Z,2.80
2023-05-30T05:26:39.604Z,2.55
2023-05-30T05:29:07.228Z,3.03
2023-05-30T05:31:35.103Z,3.15
2023-05-30T05:34:02.813Z,2.53
2023-05-30T05:36:30.789Z,2.75
2023-05-30T05:38:58.304Z,2.55
2023-05-30T05:41:26.584Z,2.90
2023-05-30T05:43:55.938Z,3.00
2023-05-30T05:46:24.295Z,2.67
2023-05-30T05:48:51.742Z,2.53
2023-05-30T05:51:19.829Z,2.50
2023-05-30T05:53:47.388Z,2.42
2023-05-30T05:56:15.641Z,2.60
2023-05-30T05:58:43.125Z,2.50
2023-05-30T06:01:12.575Z,2.22
2023-05-30T06:03:40.171Z,2.75
2023-05-30T06:06:08.325Z,2.75
2023-05-30T06:08:37.723Z,2.50
2023-05-30T06:11:05.782Z,2.38
2023-05-30T06:13:33.281Z,2.33
2023-05-30T06:16:01.398Z,2.40
2023-05-30T06:18:30.500Z,2.25
2023-05-30T06:20:58.832Z,2.03
2023-05-30T06:23:26.827Z,2.00
2023-05-30T06:25:54.824Z,1.92
2023-05-30T06:28:22.258Z,2.22
2023-05-30T06:30:50.090Z,2.30
2023-05-30T06:33:17.598Z,1.92
2023-05-30T06:35:46.864Z,2.30
2023-05-30T06:38:14.421Z,2.22
2023-05-30T06:40:42.378Z,1.83
2023-05-30T06:43:09.797Z,1.83
2023-05-30T06:45:37.622Z,2.28
2023-05-30T06:48:05.836Z,1.80
2023-05-30T06:50:33.812Z,1.83
2023-05-30T06:53:02.958Z,1.77
2023-05-30T06:55:30.942Z,1.70
2023-05-30T06:57:58.601Z,1.92
2023-05-30T07:00:26.646Z,2.20
2023-05-30T07:02:55.150Z,1.60
2023-05-30T07:05:22.930Z,1.85
2023-05-30T07:07:50.477Z,1.90
2023-05-30T07:10:19.847Z,2.60
2023-05-30T07:12:47.369Z,1.83
2023-05-30T07:15:15.451Z,2.10
2023-05-30T07:17:43.158Z,1.63
2023-05-30T07:20:11.208Z,2.15
2023-05-30T07:22:39.593Z,1.73
2023-05-30T07:25:08.106Z,1.75
2023-05-30T07:27:36.993Z,1.77
2023-05-30T07:30:05.625Z,1.80
2023-05-30T07:32:33.260Z,1.73
2023-05-30T07:35:01.642Z,1.75
2023-05-30T07:37:29.399Z,1.65
2023-05-30T07:39:57.426Z,1.85
2023-05-30T07:42:25.492Z,1.60
2023-05-30T07:44:55.296Z,2.58
2023-05-30T07:47:22.916Z,1.48
2023-05-30T07:49:50.994Z,1.40
2023-05-30T07:52:18.411Z,1.60
2023-05-30T07:54:46.533Z,1.42
2023-05-30T07:57:15.092Z,1.80
2023-05-30T07:59:43.406Z,1.45
2023-05-30T08:02:14.667Z,1.40
2023-05-30T08:04:42.527Z,2.00
2023-05-30T08:07:10.273Z,1.48
2023-05-30T08:09:38.107Z,1.70
2023-05-30T08:12:06.884Z,1.73
2023-05-30T08:14:34.725Z,1.70
2023-05-30T08:17:03.089Z,1.60
2023-05-30T08:19:32.370Z,1.75
2023-05-30T08:21:59.838Z,1.58
2023-05-30T08:24:27.829Z,1.50
2023-05-30T08:26:55.380Z,1.88
2023-05-30T08:29:23.285Z,1.70
2023-05-30T08:31:50.938Z,1.95
2023-05-30T08:34:18.846Z,1.85
2023-05-30T08:36:47.816Z,1.70
2023-05-30T08:39:16.216Z,1.60
2023-05-30T08:41:43.970Z,2.78
2023-05-30T08:44:12.021Z,2.03
2023-05-30T08:46:40.891Z,1.90
2023-05-30T08:49:12.890Z,1.35
2023-05-30T08:51:43.551Z,1.60
2023-05-30T08:54:17.182Z,1.48
2023-05-30T08:56:48.337Z,1.33
2023-05-30T09:01:50.845Z,1.40
2023-05-30T09:04:20.965Z,1.75
2023-05-30T09:06:49.482Z,1.40
2023-05-30T09:09:21.176Z,1.90
2023-05-30T09:11:49.018Z,1.60
2023-05-30T09:14:16.736Z,1.35
2023-05-30T09:16:44.622Z,1.60
2023-05-30T09:19:12.504Z,1.70
2023-05-30T09:21:41.159Z,1.60
2023-05-30T09:24:09.290Z,1.80
2023-05-30T09:26:38.396Z,1.27
2023-05-30T09:29:09.695Z,1.42
2023-05-30T09:31:37.721Z,1.48
2023-05-30T09:34:05.951Z,1.40
2023-05-30T09:36:33.751Z,1.30
2023-05-30T09:39:03.850Z,1.40
2023-05-30T09:41:32.290Z,1.23
2023-05-30T09:44:06.231Z,1.27
2023-05-30T09:46:33.744Z,1.58
2023-05-30T09:49:11.477Z,1.10
2023-05-30T09:51:39.543Z,1.20
2023-05-30T09:54:07.986Z,1.15
2023-05-30T09:56:36.328Z,1.10
2023-05-30T09:59:16.950Z,1.20
2023-05-30T10:01:45.813Z,1.33
2023-05-30T10:04:16.195Z,1.20
2023-05-30T10:06:45.269Z,1.20
2023-05-30T10:09:14.009Z,1.05
2023-05-30T10:11:42.957Z,1.65
2023-05-30T10:14:13.115Z,1.85
2023-05-30T10:16:47.857Z,1.48
2023-05-30T10:19:19.506Z,1.35
2023-05-30T10:21:47.322Z,1.40
2023-05-30T10:24:17.243Z,1.40
2023-05-30T10:26:52.209Z,1.30
2023-05-30T10:29:25.716Z,1.10
2023-05-30T10:31:55.390Z,1.13
2023-05-30T10:34:35.790Z,1.13
2023-05-30T10:37:04.001Z,1.20
2023-05-30T10:39:39.999Z,1.10
2023-05-30T10:42:12.069Z,1.10
2023-05-30T10:44:51.190Z,1.00
2023-05-30T10:47:34.477Z,1.20
2023-05-30T10:50:08.430Z,1.20
2023-05-30T10:52:35.961Z,1.33
2023-05-30T10:55:09.846Z,1.20
2023-05-30T10:57:37.460Z,1.67
2023-05-30T11:00:18.617Z,1.27
2023-05-30T11:02:51.155Z,1.92
2023-05-30T11:05:22.091Z,1.10
2023-05-30T11:07:49.548Z,1.40
2023-05-30T11:10:25.525Z,1.20
2023-05-30T11:12:53.976Z,1.17
2023-05-30T11:15:35.220Z,1.30
2023-05-30T11:18:14.609Z,1.15
2023-05-30T11:20:49.996Z,1.23
2023-05-30T11:23:17.958Z,1.20
2023-05-30T11:25:46.792Z,1.35
2023-05-30T11:28:15.566Z,1.80
2023-05-30T11:30:49.765Z,1.13
2023-05-30T11:33:18.444Z,1.40
2023-05-30T11:35:48.930Z,0.95
2023-05-30T11:38:20.915Z,1.10
2023-05-30T11:40:51.398Z,1.90
2023-05-30T11:43:19.153Z,1.38
2023-05-30T11:45:53.772Z,1.38
2023-05-30T11:48:23.058Z,1.40
2023-05-30T11:50:51.224Z,1.80
2023-05-30T11:53:18.861Z,1.30
2023-05-30T11:55:47.274Z,1.50
2023-05-30T11:58:16.020Z,1.00
2023-05-30T12:00:45.099Z,1.17
2023-05-30T12:03:13.605Z,1.13
2023-05-30T12:05:43.536Z,1.30
2023-05-30T12:08:12.954Z,1.27
2023-05-30T12:10:41.090Z,1.20
2023-05-30T12:13:09.197Z,1.70
2023-05-30T12:15:37.491Z,1.20
2023-05-30T12:18:06.087Z,1.40
2023-05-30T12:20:45.040Z,1.40
2023-05-30T12:23:13.206Z,1.30
2023-05-30T12:25:49.394Z,1.30
2023-05-30T12:28:16.889Z,1.50
2023-05-30T12:30:44.985Z,1.50
2023-05-30T12:33:16.797Z,1.33
2023-05-30T12:35:47.567Z,1.25
2023-05-30T12:38:16.304Z,1.40
2023-05-30T12:40:46.991Z,1.50
2023-05-30T12:43:15.043Z,1.10
2023-05-30T12:45:44.835Z,1.38
2023-05-30T12:48:12.587Z,1.40
2023-05-30T12:50:40.803Z,1.23
2023-05-30T12:53:09.699Z,1.20
2023-05-30T12:55:37.501Z,1.40
2023-05-30T12:58:05.040Z,1.55
2023-05-30T13:00:34.224Z,1.33
2023-05-30T13:03:03.194Z,1.50
2023-05-30T13:05:31.156Z,1.20
2023-05-30T13:07:58.635Z,1.13
2023-05-30T13:10:28.039Z,1.38
2023-05-30T13:12:55.618Z,1.60
2023-05-30T13:15:23.518Z,1.42
2023-05-30T13:17:51.133Z,1.13
2023-05-30T13:20:19.232Z,1.45
2023-05-30T13:22:46.982Z,1.60
2023-05-30T13:25:14.896Z,1.60
2023-05-30T13:27:43.903Z,1.35
2023-05-30T13:30:12.300Z,1.30
2023-05-30T13:32:39.932Z,1.20
2023-05-30T13:35:08.700Z,1.30
2023-05-30T13:37:36.135Z,1.30
2023-05-30T13:40:04.552Z,1.50
2023-05-30T13:42:32.138Z,1.38
2023-05-30T13:45:01.650Z,1.55
2023-05-30T13:47:29.207Z,1.45
2023-05-30T13:49:57.310Z,1.50
2023-05-30T13:52:25.181Z,1.40
2023-05-30T13:54:53.204Z,1.50
2023-05-30T13:57:20.814Z,1.42
2023-05-30T13:59:49.208Z,1.58
2023-05-30T14:02:18.207Z,1.23
2023-05-30T14:04:46.205Z,1.80
2023-05-30T14:07:13.772Z,1.05
2023-05-30T14:09:42.239Z,1.50
2023-05-30T14:12:09.796Z,1.60
2023-05-30T14:14:39.163Z,1.35
2023-05-30T14:17:07.255Z,1.40
2023-05-30T14:19:36.581Z,1.23
2023-05-30T14:22:04.150Z,1.27
2023-05-30T14:24:32.009Z,1.40
2023-05-30T14:27:00.906Z,1.55
2023-05-30T14:29:28.948Z,1.10
2023-05-30T14:31:56.520Z,1.40
2023-05-30T14:34:24.707Z,1.63
2023-05-30T14:36:53.688Z,1.60
2023-05-30T14:39:21.750Z,1.50
2023-05-30T14:41:49.757Z,2.05
2023-05-30T14:44:17.580Z,1.40
2023-05-30T14:46:45.287Z,1.42
2023-05-30T14:49:13.363Z,1.30
2023-05-30T14:51:40.747Z,1.55
2023-05-30T14:54:10.113Z,1.48
2023-05-30T14:56:37.848Z,1.60
2023-05-30T14:59:05.911Z,1.88
2023-05-30T15:01:45.295Z,1.58
2023-05-30T15:04:14.737Z,1.60
2023-05-30T15:06:42.388Z,1.60
2023-05-30T15:09:12.468Z,1.23
2023-05-30T15:11:39.902Z,1.50
2023-05-30T15:14:08.026Z,1.30
2023-05-30T15:16:36.446Z,1.60
2023-05-30T15:19:05.322Z,1.40
2023-05-30T15:21:32.862Z,1.70
2023-05-30T15:24:00.922Z,1.50
2023-05-30T15:26:30.183Z,1.80
2023-05-30T15:28:58.080Z,1.58
2023-05-30T15:31:26.066Z,1.63
2023-05-30T15:33:54.479Z,1.60
2023-05-30T15:36:22.273Z,1.50
2023-05-30T15:38:51.589Z,1.30
2023-05-30T15:41:19.134Z,1.25
2023-05-30T15:43:48.595Z,1.63
2023-05-30T15:46:16.427Z,1.55
2023-05-30T15:48:44.549Z,1.85
2023-05-30T15:51:12.356Z,1.38
2023-05-30T15:53:40.452Z,1.50
2023-05-30T15:56:08.498Z,1.23
2023-05-30T15:58:36.469Z,1.58
2023-05-30T16:01:05.772Z,1.40
2023-05-30T16:03:33.657Z,1.30
2023-05-30T16:06:01.550Z,1.40
2023-05-30T16:08:29.623Z,1.48
2023-05-30T16:10:57.166Z,1.30
2023-05-30T16:13:27.769Z,1.50
2023-05-30T16:15:55.152Z,1.42
2023-05-30T16:18:24.638Z,1.65
2023-05-30T16:20:52.259Z,1.23
2023-05-30T16:23:20.306Z,1.60
2023-05-30T16:25:48.005Z,1.60
2023-05-30T16:28:16.217Z,1.20
2023-05-30T16:30:43.945Z,2.20
2023-05-30T16:33:11.963Z,2.47
2023-05-30T16:35:41.289Z,1.42
2023-05-30T16:38:09.218Z,1.45
2023-05-30T16:40:36.662Z,1.95
2023-05-30T16:43:04.538Z,1.60
2023-05-30T16:45:32.013Z,1.33
2023-05-30T16:48:00.158Z,1.48
2023-05-30T16:50:27.793Z,1.55
2023-05-30T16:52:57.805Z,1.58
2023-05-30T16:55:25.640Z,1.38
2023-05-30T16:57:53.619Z,1.50
2023-05-30T17:00:21.983Z,1.58
2023-05-30T17:02:50.202Z,1.38
2023-05-30T17:05:18.279Z,1.50
2023-05-30T17:07:46.519Z,1.80
2023-05-30T17:10:16.296Z,1.30
2023-05-30T17:12:46.914Z,1.60
2023-05-30T17:15:14.720Z,1.58
2023-05-30T17:17:43.437Z,1.45
2023-05-30T17:20:13.149Z,1.60
2023-05-30T17:22:42.919Z,1.23
2023-05-30T17:25:10.603Z,1.58
2023-05-30T17:27:40.141Z,2.28
2023-05-30T17:30:08.645Z,1.90
2023-05-30T17:32:36.571Z,1.63
2023-05-30T17:35:04.905Z,1.90
2023-05-30T17:37:33.043Z,3.00
2023-05-30T17:40:00.681Z,2.38
2023-05-30T17:42:31.556Z,2.50
2023-05-30T17:45:00.664Z,2.40
2023-05-30T17:47:28.774Z,2.40
2023-05-30T17:49:56.281Z,2.40
2023-05-30T17:52:24.325Z,1.80
2023-05-30T17:54:51.940Z,1.58
2023-05-30T17:57:20.042Z,1.40
2023-05-30T17:59:47.871Z,1.92
2023-05-30T18:02:17.550Z,1.70
2023-05-30T18:04:45.318Z,1.90
2023-05-30T18:07:14.928Z,1.77
2023-05-30T18:09:42.602Z,1.70
2023-05-30T18:12:10.623Z,1.65
2023-05-30T18:14:38.203Z,1.55
2023-05-30T18:17:06.884Z,1.70
2023-05-30T18:19:38.806Z,1.75
2023-05-30T18:22:07.189Z,1.98
2023-05-30T18:24:34.674Z,1.40
2023-05-30T18:27:05.455Z,1.58
2023-05-30T18:29:33.154Z,1.67
2023-05-30T18:32:01.337Z,1.60
2023-05-30T18:34:28.990Z,1.20
2023-05-30T18:36:58.340Z,1.85
2023-05-30T18:39:25.687Z,1.67
2023-05-30T18:41:53.550Z,2.30
2023-05-30T18:44:20.979Z,2.40
2023-05-30T18:46:49.029Z,2.00
2023-05-30T18:49:16.579Z,1.63
2023-05-30T18:51:44.510Z,1.67
2023-05-30T18:54:13.614Z,1.50
2023-05-30T18:56:41.724Z,1.95
2023-05-30T18:59:09.214Z,1.70
2023-05-30T19:01:37.312Z,1.73
2023-05-30T19:04:05.083Z,1.73
2023-05-30T19:06:32.943Z,1.92
2023-05-30T19:09:00.468Z,1.73
2023-05-30T19:11:30.770Z,1.80
2023-05-30T19:13:59.563Z,1.80
2023-05-30T19:16:28.099Z,1.80
2023-05-30T19:18:55.948Z,2.40
2023-05-30T19:21:23.920Z,1.92
2023-05-30T19:23:51.641Z,2.17
2023-05-30T19:26:19.886Z,2.38
2023-05-30T19:28:49.383Z,2.50
2023-05-30T19:31:17.553Z,2.42
2023-05-30T19:33:45.162Z,2.70
2023-05-30T19:36:13.595Z,2.55
2023-05-30T19:38:41.755Z,3.20
2023-05-30T19:41:10.697Z,2.85
2023-05-30T19:43:38.585Z,3.08
2023-05-30T19:46:08.338Z,3.05
2023-05-30T19:48:35.908Z,2.83
2023-05-30T19:51:04.227Z,2.28
2023-05-30T19:53:31.964Z,2.80
2023-05-30T19:56:00.257Z,2.70
2023-05-30T19:58:28.074Z,3.72
2023-05-30T20:00:56.056Z,2.95
2023-05-30T20:03:25.388Z,3.28
2023-05-30T20:05:53.369Z,2.97
2023-05-30T20:08:21.134Z,2.90
2023-05-30T20:10:49.131Z,2.65
2023-05-30T20:13:18.551Z,2.65
2023-05-30T20:15:47.002Z,2.85
2023-05-30T20:18:14.762Z,2.75
2023-05-30T20:20:44.402Z,2.60
2023-05-30T20:23:12.166Z,2.88
2023-05-30T20:25:40.098Z,3.08
2023-05-30T20:28:07.816Z,2.75
2023-05-30T20:30:35.970Z,2.72
2023-05-30T20:33:03.720Z,3.45
2023-05-30T20:35:31.783Z,3.58
2023-05-30T20:38:00.877Z,2.80
2023-05-30T20:40:28.811Z,2.80
2023-05-30T20:42:56.518Z,2.70
2023-05-30T20:45:24.572Z,3.10
2023-05-30T20:47:52.218Z,2.70
2023-05-30T20:50:20.338Z,3.70
2023-05-30T20:52:47.890Z,3.00
2023-05-30T20:55:20.788Z,3.30
2023-05-30T21:00:16.836Z,3.28
2023-05-30T21:02:44.560Z,3.58
2023-05-30T21:05:12.700Z,2.97
2023-05-30T21:07:40.281Z,2.63
2023-05-30T21:10:09.182Z,3.08
2023-05-30T21:12:38.554Z,2.70
2023-05-30T21:15:07.840Z,2.83
2023-05-30T21:17:35.451Z,2.97
2023-05-30T21:20:03.930Z,2.33
2023-05-30T21:22:31.624Z,2.60
2023-05-30T21:25:00.186Z,2.80
2023-05-30T21:27:27.778Z,2.22
2023-05-30T21:29:59.543Z,2.58
2023-05-30T21:32:27.420Z,2.28
2023-05-30T21:34:55.700Z,2.33
2023-05-30T21:37:23.201Z,2.40
2023-05-30T21:39:51.350Z,2.20
2023-05-30T21:42:18.970Z,2.38
2023-05-30T21:44:47.008Z,2.10
2023-05-30T21:47:16.231Z,2.13
2023-05-30T21:49:44.113Z,2.72
2023-05-30T21:52:11.760Z,2.15
2023-05-30T21:54:42.113Z,2.28
2023-05-30T21:57:10.217Z,2.20
2023-05-30T21:59:38.662Z,2.20
2023-05-30T22:02:07.574Z,2.25
2023-05-30T22:04:37.528Z,2.00
2023-05-30T22:07:05.639Z,1.73
2023-05-30T22:09:33.981Z,1.85
2023-05-30T22:12:01.473Z,2.28
2023-05-30T22:14:29.708Z,1.98
2023-05-30T22:16:57.266Z,1.83
2023-05-30T22:19:25.241Z,2.40
2023-05-30T22:22:03.012Z,1.60
2023-05-30T22:24:33.826Z,2.10
2023-05-30T22:27:01.668Z,1.77
2023-05-30T22:29:30.074Z,2.15
2023-05-30T22:31:57.812Z,2.30
2023-05-30T22:34:25.689Z,2.00
2023-05-30T22:36:54.871Z,2.20
2023-05-30T22:39:23.113Z,1.88
2023-05-30T22:41:51.017Z,2.20
2023-05-30T22:44:19.085Z,1.85
2023-05-30T22:46:46.826Z,2.10
2023-05-30T22:49:15.028Z,2.30
2023-05-30T22:51:42.802Z,2.22
2023-05-30T22:54:12.167Z,2.00
2023-05-30T22:56:39.829Z,2.05
2023-05-30T22:59:08.075Z,2.40
2023-05-30T23:01:36.071Z,2.20
2023-05-30T23:04:04.005Z,2.03
2023-05-30T23:06:31.521Z,2.10
2023-05-30T23:08:59.535Z,1.73
2023-05-30T23:11:28.454Z,2.53
2023-05-30T23:13:56.782Z,2.08
2023-05-30T23:16:24.356Z,1.67
2023-05-30T23:18:52.313Z,2.10
2023-05-30T23:21:19.920Z,1.90
2023-05-30T23:23:48.253Z,1.42
2023-05-30T23:26:16.051Z,1.80
2023-05-30T23:28:45.496Z,1.92
2023-05-30T23:31:13.620Z,1.92
2023-05-30T23:33:43.602Z,1.90
2023-05-30T23:36:11.397Z,1.60
2023-05-30T23:38:39.274Z,1.60
2023-05-30T23:41:06.796Z,2.10
2023-05-30T23:43:34.598Z,1.63
2023-05-30T23:46:03.766Z,1.95
2023-05-30T23:48:31.668Z,1.98
2023-05-30T23:50:59.219Z,1.92
2023-05-30T23:53:27.217Z,1.88
2023-05-30T23:55:54.629Z,1.73
2023-05-30T23:58:22.465Z,1.90
